Time;durP1;ratioP1;P1;durP2;ratioP2;P2;SDS_P1;SDS_P2;PMS_P1;PMS_P2;Temp;Humidity;BMP_temperature;BMP_pressure;BME280_temperature;BME280_humidity;BME280_pressure;Samples;Min_cycle;Max_cycle;Signal;HPM_P1;HPM_P2
2021/03/14 00:01:16;;;;;;;1999.90;999.90;;;5.50;99.90;;;;;;4881202;29;20615;-81
2021/03/14 00:03:42;;;;;;;1999.90;999.90;;;5.40;99.90;;;;;;4882516;29;20194;-81
2021/03/14 00:06:08;;;;;;;1999.90;999.90;;;5.40;99.90;;;;;;4882306;29;20182;-81
2021/03/14 00:08:34;;;;;;;1999.90;999.90;;;5.50;99.90;;;;;;4882378;29;20411;-81
2021/03/14 00:11:08;;;;;;;1999.90;999.90;;;5.50;99.90;;;;;;4882643;29;20177;-81
2021/03/14 00:13:38;;;;;;;1999.90;999.90;;;5.50;99.90;;;;;;4882196;29;20778;-81
2021/03/14 00:16:06;;;;;;;1999.90;999.90;;;5.50;99.90;;;;;;4882415;29;20662;-81
2021/03/14 00:18:36;;;;;;;1999.90;999.90;;;5.60;99.90;;;;;;4883134;29;20163;-81
2021/03/14 00:21:03;;;;;;;1999.90;999.90;;;5.50;99.90;;;;;;4882673;29;20155;-81
2021/03/14 00:23:29;;;;;;;1999.90;999.90;;;5.50;99.90;;;;;;4882570;29;20197;-81
2021/03/14 00:25:56;;;;;;;1999.90;999.90;;;5.50;99.90;;;;;;4882075;29;20207;-81
2021/03/14 00:28:22;;;;;;;1999.90;999.90;;;5.50;99.90;;;;;;4881787;29;20606;-81
2021/03/14 00:30:49;;;;;;;1999.90;999.90;;;5.50;99.90;;;;;;4882667;29;20182;-81
2021/03/14 00:33:15;;;;;;;1999.90;999.90;;;5.50;99.90;;;;;;4880839;29;20652;-81
2021/03/14 00:35:41;;;;;;;1999.90;999.90;;;5.50;99.90;;;;;;4882277;29;20218;-81
2021/03/14 00:38:10;;;;;;;1999.90;999.90;;;5.60;99.90;;;;;;4882557;29;20591;-81
2021/03/14 00:40:36;;;;;;;1999.90;999.90;;;5.60;99.90;;;;;;4882368;29;20174;-81
2021/03/14 00:43:04;;;;;;;1999.90;999.90;;;5.50;99.90;;;;;;4882271;29;20587;-81
2021/03/14 00:45:32;;;;;;;1999.90;999.90;;;5.50;99.90;;;;;;4881323;29;20171;-81
2021/03/14 00:48:04;;;;;;;1999.90;999.90;;;5.50;99.90;;;;;;4882369;29;20536;-81
2021/03/14 00:50:34;;;;;;;1999.90;999.90;;;5.60;99.90;;;;;;4883424;29;20515;-82
2021/03/14 00:53:00;;;;;;;1999.90;999.90;;;5.60;99.90;;;;;;4884810;29;20658;-82
2021/03/14 00:55:25;;;;;;;1999.90;999.90;;;5.60;99.90;;;;;;4886006;29;20190;-82
2021/03/14 00:57:51;;;;;;;1999.90;999.90;;;5.60;99.90;;;;;;4887135;29;20726;-82
2021/03/14 01:00:17;;;;;;;1999.90;999.90;;;5.60;99.90;;;;;;4886314;29;20178;-82
2021/03/14 01:02:43;;;;;;;1999.90;999.90;;;5.60;99.90;;;;;;4886018;29;20173;-82
2021/03/14 01:05:09;;;;;;;1999.90;999.90;;;5.60;99.90;;;;;;4886413;29;20174;-81
2021/03/14 01:07:35;;;;;;;1999.90;999.90;;;5.60;99.90;;;;;;4886183;29;20185;-82
2021/03/14 01:10:01;;;;;;;1999.90;999.90;;;5.70;99.90;;;;;;4886338;29;20170;-82
2021/03/14 01:12:26;;;;;;;1999.90;999.90;;;5.70;99.90;;;;;;4886095;29;20512;-82
2021/03/14 01:14:52;;;;;;;1999.90;999.90;;;5.70;99.90;;;;;;4886211;29;20239;-82
2021/03/14 01:17:17;;;;;;;1999.90;999.90;;;5.70;99.90;;;;;;4886494;29;20174;-82
2021/03/14 01:19:44;;;;;;;1999.90;999.90;;;5.70;99.90;;;;;;4884829;29;20174;-82
2021/03/14 01:22:09;;;;;;;1999.90;999.90;;;5.70;99.90;;;;;;4884806;29;20342;-81
2021/03/14 01:24:35;;;;;;;1999.90;999.90;;;5.70;99.90;;;;;;4884030;29;20190;-82
2021/03/14 01:27:01;;;;;;;1999.90;999.90;;;5.70;99.90;;;;;;4885169;29;20551;-82
2021/03/14 01:29:26;;;;;;;1999.90;999.90;;;5.70;99.90;;;;;;4884852;29;20658;-82
2021/03/14 01:31:52;;;;;;;1999.90;999.90;;;5.70;99.90;;;;;;4885318;29;20841;-82
2021/03/14 01:34:18;;;;;;;1999.90;999.90;;;5.70;99.90;;;;;;4883737;29;20297;-82
2021/03/14 01:36:44;;;;;;;1999.90;999.90;;;5.70;99.90;;;;;;4885635;29;20198;-82
2021/03/14 01:39:09;;;;;;;1999.90;999.90;;;5.70;99.90;;;;;;4884671;29;20200;-82
2021/03/14 01:41:35;;;;;;;1999.90;999.90;;;5.70;99.90;;;;;;4899984;29;20431;-82
2021/03/14 01:44:02;;;;;;;1999.90;999.90;;;5.70;99.90;;;;;;4885410;29;20237;-82
2021/03/14 01:46:28;;;;;;;1999.90;999.90;;;5.70;99.90;;;;;;4884726;29;20567;-82
2021/03/14 01:48:54;;;;;;;1999.90;999.90;;;5.70;99.90;;;;;;4885198;29;20174;-82
2021/03/14 01:51:21;;;;;;;1999.90;999.90;;;5.80;99.90;;;;;;4885062;29;20182;-82
2021/03/14 01:53:47;;;;;;;1999.90;999.90;;;5.70;99.90;;;;;;4892069;23;20215;-82
2021/03/14 01:56:13;;;;;;;1999.90;999.90;;;5.80;99.90;;;;;;4886230;29;20198;-82
2021/03/14 01:58:43;;;;;;;1999.90;999.90;;;5.80;99.90;;;;;;4884082;29;20230;-82
2021/03/14 02:01:09;;;;;;;1999.90;999.90;;;5.70;99.90;;;;;;4885618;29;20479;-82
2021/03/14 02:03:34;;;;;;;1999.90;999.90;;;5.70;99.90;;;;;;4885012;29;20221;-82
2021/03/14 02:06:00;;;;;;;1999.90;999.90;;;5.70;99.90;;;;;;4885309;29;20171;-82
2021/03/14 02:08:26;;;;;;;1999.90;999.90;;;5.70;99.90;;;;;;4885198;29;20166;-82
2021/03/14 02:10:53;;;;;;;1999.90;999.90;;;5.70;99.90;;;;;;4885513;29;20202;-82
2021/03/14 02:13:37;;;;;;;1999.90;999.90;;;5.70;99.90;;;;;;4885274;29;20518;-81
2021/03/14 02:16:17;;;;;;;1999.90;999.90;;;5.70;99.90;;;;;;4885500;29;20194;-82
2021/03/14 02:18:47;;;;;;;1999.90;999.90;;;5.70;99.90;;;;;;4885450;29;20646;-81
2021/03/14 02:21:13;;;;;;;1999.90;999.90;;;5.70;99.90;;;;;;4884916;29;20156;-82
2021/03/14 02:23:42;;;;;;;1999.90;999.90;;;5.70;99.90;;;;;;4883745;29;20607;-82
2021/03/14 02:26:35;;;;;;;1999.90;999.90;;;5.70;99.90;;;;;;4884953;29;20170;-82
2021/03/14 02:29:02;;;;;;;1999.90;999.90;;;5.70;99.90;;;;;;4866703;29;20197;-82
2021/03/14 02:31:29;;;;;;;1999.90;999.90;;;5.70;99.90;;;;;;4884976;29;20546;-82
2021/03/14 02:34:02;;;;;;;1999.90;999.90;;;5.70;99.90;;;;;;4884658;29;20190;-82
2021/03/14 02:36:31;;;;;;;1999.90;999.90;;;5.70;99.90;;;;;;4951186;23;20197;-86
2021/03/14 02:38:59;;;;;;;1999.90;999.90;;;5.60;99.90;;;;;;4893402;29;20249;-84
2021/03/14 02:41:24;;;;;;;1999.90;999.90;;;5.60;99.90;;;;;;4893609;29;20181;-84
2021/03/14 02:43:51;;;;;;;1999.90;999.90;;;5.60;99.90;;;;;;4894014;29;20207;-84
2021/03/14 02:46:18;;;;;;;1999.90;999.90;;;5.60;99.90;;;;;;4892718;29;20226;-84
2021/03/14 02:48:45;;;;;;;1999.90;999.90;;;5.60;99.90;;;;;;4894936;29;20538;-84
2021/03/14 02:51:11;;;;;;;1999.90;999.90;;;5.60;99.90;;;;;;4894889;29;20171;-84
2021/03/14 02:53:38;;;;;;;1999.90;999.90;;;5.50;99.90;;;;;;4893183;29;20194;-85
2021/03/14 02:56:05;;;;;;;1999.90;999.90;;;5.50;99.90;;;;;;4894415;29;20281;-84
2021/03/14 02:58:32;;;;;;;1999.90;999.90;;;5.50;99.90;;;;;;4892064;29;20190;-84
2021/03/14 03:00:58;;;;;;;1999.90;999.90;;;5.50;99.90;;;;;;4894631;29;20170;-84
2021/03/14 03:03:25;;;;;;;1999.90;999.90;;;5.50;99.90;;;;;;4893303;29;20205;-84
2021/03/14 03:05:57;;;;;;;1999.90;999.90;;;5.50;99.90;;;;;;4893061;29;20182;-84
2021/03/14 03:08:23;;;;;;;1999.90;999.90;;;5.50;99.90;;;;;;4892661;29;20250;-84
2021/03/14 03:10:50;;;;;;;1999.90;999.90;;;5.40;99.90;;;;;;4893790;29;20193;-84
2021/03/14 03:13:16;;;;;;;1999.90;999.90;;;5.40;99.90;;;;;;4892538;29;20195;-84
2021/03/14 03:15:44;;;;;;;1999.90;999.90;;;5.40;99.90;;;;;;4893052;29;20677;-84
2021/03/14 03:18:10;;;;;;;1999.90;999.90;;;5.30;99.90;;;;;;4894053;29;20559;-84
2021/03/14 03:20:37;;;;;;;1999.90;999.90;;;5.30;99.90;;;;;;4893822;29;20183;-84
2021/03/14 03:23:04;;;;;;;1999.90;999.90;;;5.30;99.90;;;;;;4893323;29;20278;-84
2021/03/14 03:25:29;;;;;;;1999.90;999.90;;;5.30;99.90;;;;;;4893978;29;20194;-84
2021/03/14 03:27:55;;;;;;;1999.90;999.90;;;5.30;99.90;;;;;;4893127;29;20246;-84
2021/03/14 03:30:25;;;;;;;1999.90;999.90;;;5.30;99.90;;;;;;4891662;29;20209;-84
2021/03/14 03:32:51;;;;;;;1999.90;999.90;;;5.30;99.90;;;;;;4893070;29;20623;-84
2021/03/14 03:35:18;;;;;;;1999.90;999.90;;;5.20;99.90;;;;;;4892651;29;20250;-84
2021/03/14 03:37:49;;;;;;;1999.90;999.90;;;5.30;99.90;;;;;;4891388;29;20194;-84
2021/03/14 03:40:17;;;;;;;1999.90;999.90;;;5.20;99.90;;;;;;4893254;29;20198;-84
2021/03/14 03:42:54;;;;;;;1999.90;999.90;;;5.30;99.90;;;;;;4892671;29;20170;-84
2021/03/14 03:45:21;;;;;;;1999.90;999.90;;;5.30;99.90;;;;;;4892798;29;20166;-84
2021/03/14 03:47:47;;;;;;;1999.90;999.90;;;5.30;99.90;;;;;;4892104;29;20191;-84
2021/03/14 03:50:15;;;;;;;1999.90;999.90;;;5.30;99.90;;;;;;4892964;29;20170;-84
2021/03/14 03:52:43;;;;;;;1999.90;999.90;;;5.20;99.90;;;;;;4892737;29;20205;-84
2021/03/14 03:55:10;;;;;;;1999.90;999.90;;;5.20;99.90;;;;;;4893065;29;20178;-84
2021/03/14 03:57:38;;;;;;;1999.90;999.90;;;5.20;99.90;;;;;;4893014;29;20169;-84
2021/03/14 04:00:09;;;;;;;1999.90;999.90;;;5.20;99.90;;;;;;4893232;29;20170;-84
2021/03/14 04:02:36;;;;;;;1999.90;999.90;;;5.20;99.90;;;;;;4891384;29;20163;-84
2021/03/14 04:05:07;;;;;;;1999.90;999.90;;;5.20;99.90;;;;;;4891991;29;20281;-84
2021/03/14 04:07:36;;;;;;;1999.90;999.90;;;5.20;99.90;;;;;;4907210;29;20186;-84
2021/03/14 04:10:04;;;;;;;1999.90;999.90;;;5.20;99.90;;;;;;4891405;29;20274;-84
2021/03/14 04:12:31;;;;;;;1999.90;999.90;;;5.20;99.90;;;;;;4892971;29;20178;-84
2021/03/14 04:14:57;;;;;;;1999.90;999.90;;;5.20;99.90;;;;;;4891478;29;20198;-85
2021/03/14 04:17:23;;;;;;;1999.90;999.90;;;5.20;99.90;;;;;;4892161;29;20241;-84
2021/03/14 04:19:51;;;;;;;1999.90;999.90;;;5.20;99.90;;;;;;4892706;29;20698;-84
2021/03/14 04:22:17;;;;;;;1999.90;999.90;;;5.20;99.90;;;;;;4893080;29;20162;-84
2021/03/14 04:24:44;;;;;;;1999.90;999.90;;;5.20;99.90;;;;;;4892268;29;20692;-84
2021/03/14 04:27:10;;;;;;;1999.90;999.90;;;5.20;99.90;;;;;;4892272;29;20415;-84
2021/03/14 04:29:37;;;;;;;1999.90;999.90;;;5.20;99.90;;;;;;4907475;29;20202;-84
2021/03/14 04:32:05;;;;;;;1999.90;999.90;;;5.20;99.90;;;;;;4892797;29;20177;-83
2021/03/14 04:34:32;;;;;;;1999.90;999.90;;;5.20;99.90;;;;;;4891594;29;20674;-84
2021/03/14 04:36:58;;;;;;;1999.90;999.90;;;5.20;99.90;;;;;;4892575;29;20213;-84
2021/03/14 04:39:24;;;;;;;1999.90;999.90;;;5.10;99.90;;;;;;4893537;29;20151;-84
2021/03/14 04:41:53;;;;;;;1999.90;999.90;;;5.10;99.90;;;;;;4894295;29;20442;-84
2021/03/14 04:44:19;;;;;;;1999.90;999.90;;;5.20;99.90;;;;;;4892644;29;20427;-84
2021/03/14 04:46:45;;;;;;;1999.90;999.90;;;5.20;99.90;;;;;;4892794;29;20178;-84
2021/03/14 04:49:12;;;;;;;1999.90;999.90;;;5.20;99.90;;;;;;4892276;29;20192;-84
2021/03/14 04:51:43;;;;;;;1999.90;999.90;;;5.20;99.90;;;;;;4890955;29;20452;-84
2021/03/14 04:54:10;;;;;;;1999.90;999.90;;;5.20;99.90;;;;;;4891843;29;20193;-84
2021/03/14 04:56:39;;;;;;;1999.90;999.90;;;5.20;99.90;;;;;;4891382;29;20277;-84
2021/03/14 04:59:08;;;;;;;1999.90;999.90;;;5.20;99.90;;;;;;4891826;29;20166;-84
2021/03/14 05:01:38;;;;;;;1999.90;999.90;;;5.20;99.90;;;;;;4892212;29;20190;-84
2021/03/14 05:04:05;;;;;;;1999.90;999.90;;;5.10;99.90;;;;;;4891932;29;20187;-84
2021/03/14 05:06:32;;;;;;;1999.90;999.90;;;5.20;99.90;;;;;;4892223;29;20559;-84
2021/03/14 05:08:59;;;;;;;1999.90;999.90;;;5.10;99.90;;;;;;4891805;29;20186;-84
2021/03/14 05:11:25;;;;;;;1999.90;999.90;;;5.10;99.90;;;;;;4891939;29;20167;-84
2021/03/14 05:13:51;;;;;;;1999.90;999.90;;;5.10;99.90;;;;;;4891674;29;20213;-84
2021/03/14 05:16:18;;;;;;;1999.90;999.90;;;5.10;99.90;;;;;;4891908;29;20254;-84
2021/03/14 05:18:46;;;;;;;1999.90;999.90;;;5.10;99.90;;;;;;4891990;29;20197;-84
2021/03/14 05:21:12;;;;;;;1999.90;999.90;;;5.00;99.90;;;;;;4891805;29;20186;-84
2021/03/14 05:23:39;;;;;;;1999.90;999.90;;;5.00;99.90;;;;;;4892076;29;20191;-84
2021/03/14 05:26:09;;;;;;;1999.90;999.90;;;5.00;99.90;;;;;;4890879;29;20179;-84
2021/03/14 05:28:35;;;;;;;1999.90;999.90;;;5.00;99.90;;;;;;4892195;29;20223;-84
2021/03/14 05:31:01;;;;;;;1999.90;999.90;;;5.00;99.90;;;;;;4892310;29;20175;-84
2021/03/14 05:33:27;;;;;;;1999.90;999.90;;;5.00;99.90;;;;;;4891791;29;20226;-84
2021/03/14 05:35:52;;;;;;;1999.90;999.90;;;5.00;99.90;;;;;;4891218;29;20470;-84
2021/03/14 05:38:18;;;;;;;1999.90;999.90;;;5.00;99.90;;;;;;4892331;29;20186;-84
2021/03/14 05:40:44;;;;;;;1999.90;999.90;;;4.90;99.90;;;;;;4894505;29;20163;-84
2021/03/14 05:43:11;;;;;;;1999.90;999.90;;;4.90;99.90;;;;;;4895260;29;20187;-84
2021/03/14 05:45:37;;;;;;;1999.90;999.90;;;4.90;99.90;;;;;;4895133;29;20407;-84
2021/03/14 05:48:04;;;;;;;1999.90;999.90;;;4.90;99.90;;;;;;4895744;29;20178;-84
2021/03/14 05:50:30;;;;;;;1999.90;999.90;;;5.00;99.90;;;;;;4895228;29;20177;-84
2021/03/14 05:52:56;;;;;;;1999.90;999.90;;;4.90;99.90;;;;;;4893961;29;20654;-84
2021/03/14 05:55:24;;;;;;;1999.90;999.90;;;5.00;99.90;;;;;;4895043;29;20198;-84
2021/03/14 05:57:57;;;;;;;1999.90;999.90;;;5.00;99.90;;;;;;4895355;29;20226;-84
2021/03/14 06:00:28;;;;;;;1999.90;999.90;;;5.00;99.90;;;;;;4895279;29;20253;-84
2021/03/14 06:02:59;;;;;;;1999.90;999.90;;;5.10;99.90;;;;;;4894620;29;20158;-84
2021/03/14 06:05:26;;;;;;;1999.90;999.90;;;5.10;99.90;;;;;;4893548;29;20179;-84
2021/03/14 06:07:53;;;;;;;1999.90;999.90;;;5.10;99.90;;;;;;4894518;29;20187;-84
2021/03/14 06:10:21;;;;;;;1999.90;999.90;;;5.20;99.90;;;;;;4894850;29;20174;-84
2021/03/14 06:12:46;;;;;;;1999.90;999.90;;;5.10;99.90;;;;;;4894305;29;20175;-84
2021/03/14 06:15:13;;;;;;;1999.90;999.90;;;5.10;99.90;;;;;;4892697;29;20167;-84
2021/03/14 06:17:38;;;;;;;1999.90;999.90;;;5.10;99.90;;;;;;4893339;29;20403;-84
2021/03/14 06:20:10;;;;;;;1999.90;999.90;;;5.20;99.90;;;;;;4893633;29;20186;-84
2021/03/14 06:22:36;;;;;;;1999.90;999.90;;;5.20;99.90;;;;;;4893241;29;20645;-84
2021/03/14 06:25:03;;;;;;;1999.90;999.90;;;5.30;99.90;;;;;;4893759;29;20225;-84
2021/03/14 06:27:30;;;;;;;1999.90;999.90;;;5.30;99.90;;;;;;4893741;29;20190;-84
2021/03/14 06:29:56;;;;;;;1999.90;999.90;;;5.30;99.90;;;;;;4894252;29;20167;-84
2021/03/14 06:32:22;;;;;;;1999.90;999.90;;;5.30;99.90;;;;;;4893706;29;20163;-84
2021/03/14 06:34:48;;;;;;;1999.90;999.90;;;5.30;99.90;;;;;;4893660;29;20248;-84
2021/03/14 06:37:15;;;;;;;1999.90;999.90;;;5.40;99.90;;;;;;4893495;29;20257;-84
2021/03/14 06:39:51;;;;;;;1999.90;999.90;;;5.30;99.90;;;;;;4894180;29;20186;-84
2021/03/14 06:42:34;;;;;;;1999.90;999.90;;;5.40;99.90;;;;;;4892986;29;20166;-84
2021/03/14 06:45:14;;;;;;;1999.90;999.90;;;5.50;99.90;;;;;;4893065;29;20579;-85
2021/03/14 06:47:48;;;;;;;1999.90;999.90;;;5.40;99.90;;;;;;4893566;29;20170;-84
2021/03/14 06:50:18;;;;;;;1999.90;999.90;;;5.40;99.90;;;;;;4891753;29;20242;-84
2021/03/14 06:53:06;;;;;;;1999.90;999.90;;;5.50;99.90;;;;;;4893256;29;20169;-84
2021/03/14 06:55:32;;;;;;;1999.90;999.90;;;5.60;99.90;;;;;;4893126;29;20202;-84
2021/03/14 06:58:24;;;;;;;1999.90;999.90;;;5.60;99.90;;;;;;4892656;29;20174;-86
2021/03/14 07:01:17;;;;;;;1999.90;999.90;;;5.60;99.90;;;;;;4893201;29;20391;-85
2021/03/14 07:03:44;;;;;;;1999.90;999.90;;;5.70;99.90;;;;;;4893077;29;20194;-85
2021/03/14 07:06:29;;;;;;;1999.90;999.90;;;5.70;99.90;;;;;;4891339;29;20186;-85
2021/03/14 07:09:09;;;;;;;1999.90;999.90;;;5.70;99.90;;;;;;4892290;29;20239;-85
2021/03/14 07:11:36;;;;;;;1999.90;999.90;;;5.80;99.90;;;;;;4892482;29;20535;-85
2021/03/14 07:14:05;;;;;;;1999.90;999.90;;;5.70;99.90;;;;;;4891522;29;20197;-85
2021/03/14 07:16:48;;;;;;;1999.90;999.90;;;5.80;99.90;;;;;;4893023;29;20199;-85
2021/03/14 07:19:33;;;;;;;1999.90;999.90;;;5.90;99.90;;;;;;4892509;29;20526;-85
2021/03/14 07:22:05;;;;;;;1999.90;999.90;;;5.90;99.90;;;;;;4893777;29;20239;-85
2021/03/14 07:24:38;;;;;;;1999.90;999.90;;;6.00;99.90;;;;;;4890517;29;20198;-85
2021/03/14 07:27:09;;;;;;;1999.90;999.90;;;6.00;99.90;;;;;;4890167;29;20587;-85
2021/03/14 07:29:35;;;;;;;1999.90;999.90;;;6.10;99.90;;;;;;4887340;29;20175;-85
2021/03/14 07:32:03;;;;;;;1999.90;999.90;;;6.20;99.90;;;;;;4889680;29;20166;-85
2021/03/14 07:34:29;;;;;;;1999.90;999.90;;;6.20;99.90;;;;;;4888576;29;20566;-85
2021/03/14 07:36:55;;;;;;;1999.90;999.90;;;6.30;99.90;;;;;;4887880;29;20235;-85
2021/03/14 07:39:22;;;;;;;1999.90;999.90;;;6.40;99.90;;;;;;4888509;29;20630;-85
2021/03/14 07:41:48;;;;;;;1999.90;999.90;;;6.40;99.90;;;;;;4888645;29;20407;-85
2021/03/14 07:44:18;;;;;;;1999.90;999.90;;;6.50;99.90;;;;;;4888436;29;20192;-85
2021/03/14 07:46:45;;;;;;;1999.90;999.90;;;6.50;99.90;;;;;;4886977;29;20171;-85
2021/03/14 07:49:16;;;;;;;1999.90;999.90;;;6.50;99.90;;;;;;4887704;29;20642;-85
2021/03/14 07:51:49;;;;;;;1999.90;999.90;;;6.60;99.90;;;;;;4886359;29;20178;-85
2021/03/14 07:54:24;;;;;;;1999.90;999.90;;;6.70;99.90;;;;;;4887743;29;20190;-85
2021/03/14 07:56:54;;;;;;;1999.90;999.90;;;6.70;99.90;;;;;;4886721;29;20558;-85
2021/03/14 07:59:31;;;;;;;1999.90;999.90;;;6.70;99.90;;;;;;4886475;29;20178;-85
2021/03/14 08:02:23;;;;;;;1999.90;999.90;;;6.70;99.90;;;;;;4902534;29;20189;-85
2021/03/14 08:04:54;;;;;;;1999.90;999.90;;;6.70;99.90;;;;;;4887265;29;20191;-85
2021/03/14 08:07:45;;;;;;;1999.90;999.90;;;6.60;99.90;;;;;;4888022;29;20163;-85
2021/03/14 08:10:30;;;;;;;1999.90;999.90;;;6.60;99.90;;;;;;4882729;29;20178;-85
2021/03/14 08:12:56;;;;;;;1999.90;999.90;;;6.50;99.90;;;;;;4887349;29;20526;-85
2021/03/14 08:15:28;;;;;;;1999.90;999.90;;;6.40;99.90;;;;;;4889252;29;20191;-85
2021/03/14 08:17:57;;;;;;;1999.90;999.90;;;6.50;99.90;;;;;;4887912;29;20186;-85
2021/03/14 08:20:49;;;;;;;1999.90;999.90;;;6.60;99.90;;;;;;4886602;29;20179;-85
2021/03/14 08:23:18;;;;;;;1999.90;999.90;;;6.70;99.90;;;;;;4886873;29;20261;-85
2021/03/14 08:25:49;;;;;;;1999.90;999.90;;;6.60;99.90;;;;;;4887999;29;20204;-85
2021/03/14 08:28:37;;;;;;;1999.90;999.90;;;6.60;99.90;;;;;;4888229;29;20186;-85
2021/03/14 08:31:04;;;;;;;1999.90;999.90;;;6.60;99.90;;;;;;4887421;29;20552;-85
2021/03/14 08:33:40;;;;;;;1999.90;999.90;;;6.80;99.90;;;;;;4887788;29;20213;-85
2021/03/14 08:36:08;;;;;;;1999.90;999.90;;;6.80;99.90;;;;;;4886818;29;20273;-85
2021/03/14 08:39:16;;;;;;;1999.90;999.90;;;6.90;99.90;;;;;;4950004;23;20221;-82
2021/03/14 08:42:19;;;;;;;1999.90;999.90;;;6.90;99.90;;;;;;4884497;29;20201;-82
2021/03/14 08:45:59;;;;;;;;;;;;;;;;;;;;;
2021/03/14 08:48:55;;;;;;;1999.90;999.90;;;7.00;99.90;;;;;;4785336;29;20244;-82
2021/03/14 08:51:30;;;;;;;1999.90;999.90;;;6.90;99.90;;;;;;4864221;29;20266;-82
2021/03/14 08:54:21;;;;;;;1999.90;999.90;;;6.80;99.90;;;;;;4863583;29;20294;-82
2021/03/14 08:57:05;;;;;;;1999.90;999.90;;;6.80;99.90;;;;;;4855142;29;20256;-82
2021/03/14 08:59:31;;;;;;;1999.90;999.90;;;6.80;99.90;;;;;;4857803;29;20659;-83
2021/03/14 09:02:22;;;;;;;1999.90;999.90;;;6.80;99.90;;;;;;4866560;29;20187;-82
2021/03/14 09:05:15;;;;;;;1999.90;999.90;;;6.90;99.90;;;;;;4864671;29;20681;-82
2021/03/14 09:07:44;;;;;;;1999.90;999.90;;;6.90;99.90;;;;;;4864178;29;20182;-82
2021/03/14 09:10:17;;;;;;;1999.90;999.90;;;6.80;99.90;;;;;;4865631;29;20258;-82
2021/03/14 09:13:00;;;;;;;1999.90;999.90;;;6.90;99.90;;;;;;4865308;29;20156;-82
2021/03/14 09:15:27;;;;;;;1999.90;999.90;;;7.00;99.90;;;;;;4869120;29;20703;-82
2021/03/14 09:17:57;;;;;;;1999.90;999.90;;;7.10;99.90;;;;;;4867515;29;20175;-82
2021/03/14 09:20:29;;;;;;;1999.90;999.90;;;7.10;99.90;;;;;;4868642;29;20625;-83
2021/03/14 09:22:55;;;;;;;1999.90;999.90;;;7.00;99.90;;;;;;4867490;29;20198;-82
2021/03/14 09:25:20;;;;;;;1999.90;999.90;;;6.90;99.90;;;;;;4866547;29;20171;-83
2021/03/14 09:27:47;;;;;;;1999.90;999.90;;;6.90;99.90;;;;;;4866878;29;20211;-83
2021/03/14 09:30:14;;;;;;;1999.90;999.90;;;6.90;99.90;;;;;;4867490;29;20526;-82
2021/03/14 09:32:50;;;;;;;1999.90;999.90;;;7.00;99.90;;;;;;4866660;29;20635;-81
2021/03/14 09:36:24;;;;;;;1999.90;999.90;;;7.00;99.90;;;;;;4864409;29;20207;-82
2021/03/14 09:39:33;;;;;;;;;;;;;;;;;;;;;
2021/03/14 09:49:24;;;;;;;1999.90;999.90;;;6.70;99.90;;;;;;4863142;29;20190;-81
2021/03/14 09:51:57;;;;;;;1999.90;999.90;;;6.60;99.90;;;;;;4867118;29;20179;-82
2021/03/14 09:54:25;;;;;;;1999.90;999.90;;;6.60;99.90;;;;;;4866733;29;20272;-82
2021/03/14 09:56:59;;;;;;;1999.90;999.90;;;6.60;99.90;;;;;;4866718;29;20285;-82
2021/03/14 09:59:28;;;;;;;1999.90;999.90;;;6.60;99.90;;;;;;4865437;29;20192;-82
2021/03/14 10:01:57;;;;;;;1999.90;999.90;;;6.70;99.90;;;;;;4865572;29;20167;-82
2021/03/14 10:04:44;;;;;;;1999.90;999.90;;;6.70;99.90;;;;;;4866385;29;20191;-82
2021/03/14 10:07:22;;;;;;;1999.90;999.90;;;6.70;99.90;;;;;;4867232;29;20696;-82
2021/03/14 10:09:54;;;;;;;1999.90;999.90;;;6.70;99.90;;;;;;4866707;29;20155;-81
2021/03/14 10:12:28;;;;;;;1999.90;999.90;;;6.80;99.90;;;;;;4866435;29;20769;-81
2021/03/14 10:15:24;;;;;;;1999.90;999.90;;;6.80;99.90;;;;;;4866249;29;20330;-81
2021/03/14 10:18:18;;;;;;;1999.90;999.90;;;6.80;99.90;;;;;;4838162;29;20213;-81
2021/03/14 10:21:32;;;;;;;;;;;;;;;;;;;;;
2021/03/14 10:24:27;;;;;;;1999.90;999.90;;;6.80;99.90;;;;;;4865639;29;20266;-82
2021/03/14 10:27:23;;;;;;;1999.90;999.90;;;6.70;99.90;;;;;;4842797;29;20659;-81
2021/03/14 10:30:07;;;;;;;1999.90;999.90;;;6.70;99.90;;;;;;4862342;29;20191;-81
2021/03/14 10:32:36;;;;;;;1999.90;999.90;;;6.70;99.90;;;;;;4864325;29;20174;-82
2021/03/14 10:35:10;;;;;;;1999.90;999.90;;;6.80;99.90;;;;;;4865620;29;20212;-82
2021/03/14 10:37:43;;;;;;;1999.90;999.90;;;7.00;99.90;;;;;;4864526;29;20187;-81
2021/03/14 10:40:15;;;;;;;1999.90;999.90;;;7.10;99.90;;;;;;4865266;29;20162;-81
2021/03/14 10:42:44;;;;;;;1999.90;999.90;;;7.20;99.90;;;;;;4863911;29;20267;-81
2021/03/14 10:45:12;;;;;;;1999.90;999.90;;;7.30;99.90;;;;;;4864455;29;20190;-81
2021/03/14 10:47:45;;;;;;;1999.90;999.90;;;7.30;99.90;;;;;;4864667;29;20171;-81
2021/03/14 10:50:22;;;;;;;1999.90;999.90;;;7.50;99.90;;;;;;4865974;29;20535;-82
2021/03/14 10:53:13;;;;;;;1999.90;999.90;;;7.40;99.90;;;;;;4866520;29;20155;-81
2021/03/14 10:55:41;;;;;;;1999.90;999.90;;;7.40;99.90;;;;;;4866059;29;20255;-82
2021/03/14 10:58:09;;;;;;;1999.90;999.90;;;7.30;99.90;;;;;;4865589;29;20179;-82
2021/03/14 11:00:36;;;;;;;1999.90;999.90;;;7.40;99.90;;;;;;4864780;29;20202;-82
2021/03/14 11:03:13;;;;;;;1999.90;999.90;;;7.40;99.90;;;;;;4865729;29;20191;-81
2021/03/14 11:05:43;;;;;;;1999.90;999.90;;;7.50;99.90;;;;;;4866347;29;20179;-82
2021/03/14 11:08:09;;;;;;;1999.90;999.90;;;7.50;99.90;;;;;;4866346;29;20168;-81
2021/03/14 11:10:38;;;;;;;1999.90;999.90;;;7.60;99.90;;;;;;4865102;29;20178;-83
2021/03/14 11:13:27;;;;;;;1999.90;999.90;;;7.60;99.90;;;;;;4865617;29;20219;-82
2021/03/14 11:16:38;;;;;;;1999.90;999.90;;;7.80;99.90;;;;;;4866790;29;20572;-82
2021/03/14 11:19:04;;;;;;;1999.90;999.90;;;7.90;99.90;;;;;;4834209;29;20175;-82
2021/03/14 11:21:30;;;;;;;1999.90;999.90;;;8.00;99.90;;;;;;4864637;29;20176;-82
2021/03/14 11:24:04;;;;;;;1999.90;999.90;;;8.00;99.90;;;;;;4866118;29;20731;-82
2021/03/14 11:26:32;;;;;;;1999.90;999.90;;;7.90;99.90;;;;;;4866142;29;20393;-82
2021/03/14 11:29:01;;;;;;;1999.90;999.90;;;7.90;99.90;;;;;;4865667;29;20544;-81
2021/03/14 11:31:41;;;;;;;1999.90;999.90;;;7.90;99.90;;;;;;4865725;29;20231;-81
2021/03/14 11:34:07;;;;;;;1999.90;999.90;;;7.80;99.90;;;;;;4865633;29;20268;-82
2021/03/14 11:36:38;;;;;;;1999.90;999.90;;;7.80;99.90;;;;;;4863367;29;20207;-82
2021/03/14 11:39:10;;;;;;;1999.90;999.90;;;7.70;99.90;;;;;;4864779;29;20449;-82
2021/03/14 11:41:36;;;;;;;1999.90;999.90;;;7.60;99.90;;;;;;4864394;29;20171;-82
2021/03/14 11:44:02;;;;;;;1999.90;999.90;;;7.60;99.90;;;;;;4863555;29;20282;-82
2021/03/14 11:46:34;;;;;;;1999.90;999.90;;;7.70;99.90;;;;;;4864479;29;20174;-82
2021/03/14 11:49:05;;;;;;;1999.90;999.90;;;7.70;99.90;;;;;;4863951;29;20238;-82
2021/03/14 11:51:36;;;;;;;1999.90;999.90;;;7.80;99.90;;;;;;4865641;29;20163;-82
2021/03/14 11:54:05;;;;;;;1999.90;999.90;;;7.90;99.90;;;;;;4864159;29;20233;-82
2021/03/14 11:56:32;;;;;;;1999.90;999.90;;;8.00;99.90;;;;;;4864293;29;20194;-82
2021/03/14 11:59:01;;;;;;;1999.90;999.90;;;8.10;99.90;;;;;;4865090;29;20167;-82
2021/03/14 12:01:32;;;;;;;1999.90;999.90;;;8.10;99.90;;;;;;4863261;29;20180;-82
2021/03/14 12:03:58;;;;;;;1999.90;999.90;;;8.10;99.90;;;;;;4863542;29;20202;-82
2021/03/14 12:06:23;;;;;;;1999.90;999.90;;;8.10;99.90;;;;;;4864060;29;20266;-82
2021/03/14 12:09:02;;;;;;;1999.90;999.90;;;8.10;99.90;;;;;;4865274;29;20417;-82
2021/03/14 12:11:28;;;;;;;1999.90;999.90;;;8.00;99.90;;;;;;4865269;29;20524;-82
2021/03/14 12:14:00;;;;;;;1999.90;999.90;;;7.90;99.90;;;;;;4863826;29;20195;-82
2021/03/14 12:16:28;;;;;;;1999.90;999.90;;;7.80;99.90;;;;;;4865006;29;20810;-81
2021/03/14 12:18:58;;;;;;;1999.90;999.90;;;7.70;99.90;;;;;;4864683;29;20259;-82
2021/03/14 12:21:27;;;;;;;1999.90;999.90;;;7.70;99.90;;;;;;4863114;29;20617;-82
2021/03/14 12:24:02;;;;;;;1999.90;999.90;;;7.70;99.90;;;;;;4863860;29;20195;-82
2021/03/14 12:26:33;;;;;;;1999.90;999.90;;;7.80;99.90;;;;;;4864569;29;20187;-82
2021/03/14 12:28:58;;;;;;;1999.90;999.90;;;7.90;99.90;;;;;;4864787;29;20159;-82
2021/03/14 12:31:27;;;;;;;1999.90;999.90;;;8.00;99.90;;;;;;4863475;29;20280;-82
2021/03/14 12:33:53;;;;;;;1999.90;999.90;;;8.20;99.90;;;;;;4864814;29;20231;-82
2021/03/14 12:36:18;;;;;;;1999.90;999.90;;;8.40;99.90;;;;;;4863980;29;20243;-82
2021/03/14 12:38:44;;;;;;;1999.90;999.90;;;8.50;99.90;;;;;;4863311;29;20532;-82